Bachu, China
Current Conditions -  °F | °C
As of 5:00 PM on Saturday 25 Oct 2014 (Local Time) from ZWSH Reporting Station
Few Clouds Few Clouds  
Wind Chill: 68°   Ceiling: Unl
Heat Index: 68°   Visibility: 6mi
Dew Point: 25°   Wind: 7mph
Humidity: 20%   Direction: 90°E
Pressure: 30"   Gusts: NA
Location:  39.8°N, 78.57°E
Report Text: ZWSH 250900Z 09003MPS 9999 FEW040 20/M04 Q1016 NOSIG
Loading
Personal Weather Stations






























Interactive Weather Map
Tropical Storm Tracking
New forecast layout! Learn more

10-Day Weather Forecast

Advertisements
Track Severe Weather on mobile